createdAt,value
2017-12-23T00:02:24.954Z,12.37
2017-12-23T00:04:52.463Z,13.97
2017-12-23T00:07:19.944Z,12.80
2017-12-23T00:09:47.440Z,11.90
2017-12-23T00:12:14.905Z,12.80
2017-12-23T00:14:42.447Z,12.00
2017-12-23T00:17:09.944Z,12.33
2017-12-23T00:19:37.433Z,12.73
2017-12-23T00:22:04.958Z,12.67
2017-12-23T00:24:32.520Z,12.70
2017-12-23T00:27:00.001Z,12.80
2017-12-23T00:29:27.538Z,12.20
2017-12-23T00:31:55.056Z,10.70
2017-12-23T00:34:31.357Z,11.80
2017-12-23T00:37:02.211Z,11.40
2017-12-23T00:39:29.673Z,12.10
2017-12-23T00:41:57.290Z,12.33
2017-12-23T00:44:24.800Z,11.90
2017-12-23T00:46:52.304Z,11.60
2017-12-23T00:49:19.930Z,12.53
2017-12-23T00:51:47.446Z,11.70
2017-12-23T00:54:14.939Z,12.20
2017-12-23T00:56:42.462Z,12.10
2017-12-23T00:59:10.201Z,12.03
2017-12-23T01:01:37.728Z,12.37
2017-12-23T01:04:05.232Z,12.13
2017-12-23T01:06:32.736Z,11.83
2017-12-23T01:09:00.244Z,11.90
2017-12-23T01:11:27.834Z,11.00
2017-12-23T01:13:55.323Z,11.30
2017-12-23T01:16:22.856Z,12.70
2017-12-23T01:18:50.433Z,12.20
2017-12-23T01:21:17.918Z,12.33
2017-12-23T01:23:45.488Z,13.77
2017-12-23T01:26:13.143Z,11.67
2017-12-23T01:28:40.669Z,12.63
2017-12-23T01:31:08.174Z,11.77
2017-12-23T01:33:35.707Z,12.70
2017-12-23T01:36:03.200Z,11.97
2017-12-23T01:38:30.734Z,13.33
2017-12-23T01:40:58.259Z,13.20
2017-12-23T01:43:25.756Z,12.33
2017-12-23T01:45:53.266Z,12.70
2017-12-23T01:48:32.436Z,12.20
2017-12-23T01:50:59.972Z,11.23
2017-12-23T01:53:27.568Z,11.20
2017-12-23T01:55:55.104Z,11.63
2017-12-23T01:58:23.260Z,12.33
2017-12-23T02:00:51.637Z,11.80
2017-12-23T02:03:20.148Z,11.47
2017-12-23T02:05:47.687Z,11.70
2017-12-23T02:08:15.258Z,11.27
2017-12-23T02:10:42.728Z,11.57
2017-12-23T02:13:10.216Z,11.10
2017-12-23T02:15:37.899Z,11.63
2017-12-23T02:18:05.390Z,10.63
2017-12-23T02:20:33.023Z,12.23
2017-12-23T02:23:00.808Z,11.83
2017-12-23T02:25:28.312Z,11.00
2017-12-23T02:27:55.794Z,10.63
2017-12-23T02:30:23.638Z,11.63
2017-12-23T02:32:51.153Z,11.97
2017-12-23T02:35:18.647Z,11.47
2017-12-23T02:37:46.101Z,10.63
2017-12-23T02:40:13.814Z,10.23
2017-12-23T02:42:41.812Z,9.70
2017-12-23T02:45:09.303Z,10.67
2017-12-23T02:47:36.860Z,10.77
2017-12-23T02:50:04.396Z,11.23
2017-12-23T02:52:31.989Z,10.37
2017-12-23T02:54:59.461Z,11.37
2017-12-23T02:57:26.955Z,12.23
2017-12-23T02:59:54.411Z,10.33
2017-12-23T03:02:21.874Z,11.20
2017-12-23T03:04:49.397Z,11.10
2017-12-23T03:07:16.853Z,10.53
2017-12-23T03:09:44.324Z,11.03
2017-12-23T03:12:11.809Z,11.07
2017-12-23T03:14:39.295Z,9.90
2017-12-23T03:17:06.752Z,11.10
2017-12-23T03:19:34.232Z,10.57
2017-12-23T03:22:01.762Z,10.70
2017-12-23T03:24:29.463Z,10.00
2017-12-23T03:26:56.945Z,10.57
2017-12-23T03:29:24.680Z,9.80
2017-12-23T03:31:52.198Z,10.30
2017-12-23T03:34:19.683Z,10.27
2017-12-23T03:36:47.134Z,9.90
2017-12-23T03:39:14.856Z,10.37
2017-12-23T03:41:42.353Z,8.93
2017-12-23T03:44:09.810Z,9.27
2017-12-23T03:46:37.328Z,10.50
2017-12-23T03:49:04.792Z,9.13
2017-12-23T03:51:32.455Z,8.83
2017-12-23T03:53:59.916Z,8.40
2017-12-23T03:56:27.395Z,8.53
2017-12-23T03:58:54.899Z,8.50
2017-12-23T04:01:22.335Z,9.37
2017-12-23T04:16:44.810Z,6.63
2017-12-23T04:19:12.267Z,7.40
2017-12-23T04:21:39.724Z,8.10
2017-12-23T04:24:07.187Z,7.70
2017-12-23T04:26:34.640Z,8.60
2017-12-23T04:29:02.088Z,8.30
2017-12-23T04:31:29.554Z,8.63
2017-12-23T04:33:57.047Z,9.27
2017-12-23T04:36:24.849Z,8.07
2017-12-23T04:38:52.335Z,9.00
2017-12-23T04:41:19.795Z,8.10
2017-12-23T04:43:47.243Z,8.57
2017-12-23T04:46:15.070Z,9.60
2017-12-23T04:48:42.932Z,9.40
2017-12-23T04:51:10.466Z,7.93
2017-12-23T04:53:37.930Z,8.50
2017-12-23T04:56:05.407Z,8.97
2017-12-23T04:58:32.901Z,8.23
2017-12-23T05:01:00.376Z,9.13
2017-12-23T05:03:27.831Z,9.00
2017-12-23T05:05:55.303Z,8.10
2017-12-23T05:08:22.810Z,8.50
2017-12-23T05:10:50.268Z,9.07
2017-12-23T05:13:17.842Z,9.40
2017-12-23T05:15:45.304Z,7.93
2017-12-23T05:18:12.765Z,9.20
2017-12-23T05:20:40.234Z,9.27
2017-12-23T05:23:07.702Z,7.10
2017-12-23T05:25:35.151Z,8.60
2017-12-23T05:28:02.642Z,7.97
2017-12-23T05:30:30.159Z,7.63
2017-12-23T05:32:57.620Z,7.30
2017-12-23T05:35:25.148Z,7.43
2017-12-23T05:37:52.620Z,8.60
2017-12-23T05:40:20.085Z,8.97
2017-12-23T05:42:47.555Z,8.30
2017-12-23T05:45:15.265Z,8.80
2017-12-23T05:47:42.774Z,7.73
2017-12-23T05:50:10.293Z,7.83
2017-12-23T05:52:37.755Z,8.70
2017-12-23T05:55:05.207Z,8.60
2017-12-23T05:57:32.712Z,9.07
2017-12-23T06:00:00.172Z,8.43
2017-12-23T06:02:27.615Z,8.10
2017-12-23T06:04:55.080Z,8.67
2017-12-23T06:07:22.523Z,7.83
2017-12-23T06:09:49.994Z,9.17
2017-12-23T06:12:17.516Z,8.87
2017-12-23T06:14:44.997Z,9.27
2017-12-23T06:17:12.464Z,9.97
2017-12-23T06:19:39.988Z,10.37
2017-12-23T06:22:08.784Z,10.10
2017-12-23T06:24:36.266Z,10.10
2017-12-23T06:27:03.856Z,10.87
2017-12-23T06:29:31.354Z,9.63
2017-12-23T06:31:58.875Z,9.27
2017-12-23T06:34:26.465Z,10.17
2017-12-23T06:36:54.344Z,11.27
2017-12-23T06:39:21.866Z,10.10
2017-12-23T06:41:49.328Z,10.30
2017-12-23T06:44:16.848Z,10.07
2017-12-23T06:46:44.360Z,10.80
2017-12-23T06:49:11.844Z,9.70
2017-12-23T06:51:39.601Z,11.50
2017-12-23T06:54:07.083Z,11.00
2017-12-23T06:56:34.660Z,11.03
2017-12-23T06:59:02.195Z,10.10
2017-12-23T07:01:29.670Z,10.90
2017-12-23T07:03:57.300Z,10.37
2017-12-23T07:06:25.004Z,12.07
2017-12-23T07:08:52.505Z,11.23
2017-12-23T07:11:20.115Z,11.60
2017-12-23T07:13:47.578Z,11.70
2017-12-23T07:16:15.819Z,11.17
2017-12-23T07:18:43.446Z,11.03
2017-12-23T07:21:10.940Z,10.93
2017-12-23T07:23:38.393Z,10.63
2017-12-23T07:26:05.953Z,11.03
2017-12-23T07:28:33.844Z,10.43
2017-12-23T07:31:01.304Z,11.30
2017-12-23T07:33:28.868Z,10.40
2017-12-23T07:35:56.504Z,11.47
2017-12-23T07:38:23.956Z,9.50
2017-12-23T07:40:51.448Z,10.50
2017-12-23T07:43:18.921Z,9.80
2017-12-23T07:45:46.424Z,10.60
2017-12-23T07:48:13.912Z,10.07
2017-12-23T07:50:41.911Z,10.27
2017-12-23T07:53:09.410Z,9.47
2017-12-23T07:55:37.069Z,10.23
2017-12-23T07:58:04.606Z,9.13
2017-12-23T08:00:32.082Z,9.90
2017-12-23T08:02:59.670Z,11.27
2017-12-23T08:05:27.161Z,10.80
2017-12-23T08:07:54.647Z,10.97
2017-12-23T08:10:22.148Z,10.77
2017-12-23T08:12:49.811Z,11.17
2017-12-23T08:15:17.461Z,11.53
2017-12-23T08:17:45.141Z,11.17
2017-12-23T08:20:13.736Z,11.47
2017-12-23T08:22:45.343Z,11.20
2017-12-23T08:25:13.744Z,11.40
2017-12-23T08:27:41.273Z,11.10
2017-12-23T08:30:08.831Z,11.53
2017-12-23T08:32:36.463Z,12.23
2017-12-23T08:35:03.996Z,12.33
2017-12-23T08:37:31.475Z,13.20
2017-12-23T08:39:59.015Z,11.97
2017-12-23T08:42:27.001Z,13.27
2017-12-23T08:44:54.530Z,12.80
2017-12-23T08:47:22.010Z,14.70
2017-12-23T08:49:49.484Z,13.37
2017-12-23T08:52:20.725Z,14.17
2017-12-23T08:54:50.746Z,13.20
2017-12-23T08:57:23.331Z,14.37
2017-12-23T08:59:50.969Z,14.50
2017-12-23T09:02:20.286Z,14.40
2017-12-23T09:04:47.778Z,15.13
2017-12-23T09:07:15.307Z,15.37
2017-12-23T09:09:42.788Z,14.80
2017-12-23T09:12:10.390Z,15.20
2017-12-23T09:14:41.364Z,15.20
2017-12-23T09:17:08.975Z,15.20
2017-12-23T09:19:36.484Z,15.40
2017-12-23T09:22:04.152Z,14.83
2017-12-23T09:24:31.622Z,12.80
2017-12-23T09:26:59.626Z,13.53
2017-12-23T09:29:30.824Z,13.90
2017-12-23T09:31:58.381Z,13.30
2017-12-23T09:34:25.888Z,14.40
2017-12-23T09:36:54.948Z,13.87
2017-12-23T09:39:22.416Z,14.33
2017-12-23T09:41:49.901Z,11.90
2017-12-23T09:44:18.783Z,12.37
2017-12-23T09:46:47.148Z,12.90
2017-12-23T09:49:15.424Z,13.73
2017-12-23T09:51:44.071Z,12.07
2017-12-23T09:54:11.557Z,12.60
2017-12-23T09:56:39.061Z,12.90
2017-12-23T09:59:06.655Z,12.87
2017-12-23T10:01:34.122Z,13.10
2017-12-23T10:04:01.623Z,12.70
2017-12-23T10:06:29.158Z,12.30
2017-12-23T10:08:56.624Z,12.03
2017-12-23T10:11:24.106Z,12.50
2017-12-23T10:13:51.656Z,11.63
2017-12-23T10:16:19.119Z,10.50
2017-12-23T10:18:46.583Z,11.80
2017-12-23T10:21:14.209Z,11.13
2017-12-23T10:23:41.684Z,10.07
2017-12-23T10:26:09.152Z,10.10
2017-12-23T10:28:36.679Z,9.23
2017-12-23T10:31:04.127Z,9.73
2017-12-23T10:33:31.583Z,10.20
2017-12-23T10:35:59.082Z,9.60
2017-12-23T10:38:26.586Z,9.30
2017-12-23T10:40:54.793Z,7.87
2017-12-23T10:43:22.261Z,6.90
2017-12-23T10:45:49.805Z,6.20
2017-12-23T10:48:17.392Z,6.97
2017-12-23T10:50:45.132Z,6.47
2017-12-23T10:53:12.582Z,4.87
2017-12-23T10:55:40.050Z,5.70
2017-12-23T10:58:07.584Z,4.63
2017-12-23T11:00:35.030Z,6.20
2017-12-23T11:03:02.644Z,4.33
2017-12-23T11:05:30.096Z,4.20
2017-12-23T11:07:57.629Z,4.70
2017-12-23T11:10:36.855Z,4.00
2017-12-23T11:13:04.340Z,4.47
2017-12-23T11:15:31.834Z,4.10
2017-12-23T11:17:59.388Z,4.27
2017-12-23T11:20:26.890Z,4.00
2017-12-23T11:22:54.420Z,4.77
2017-12-23T11:25:21.974Z,4.97
2017-12-23T11:27:49.455Z,6.27
2017-12-23T11:30:16.941Z,5.70
2017-12-23T11:32:44.415Z,5.50
2017-12-23T11:35:12.525Z,5.70
2017-12-23T11:37:40.045Z,6.67
2017-12-23T11:40:07.530Z,7.00
2017-12-23T11:42:35.602Z,6.80
2017-12-23T11:45:03.187Z,7.20
2017-12-23T11:47:30.661Z,8.00
2017-12-23T11:49:58.136Z,8.90
2017-12-23T11:52:25.595Z,8.70
2017-12-23T11:54:54.166Z,8.97
2017-12-23T11:57:21.748Z,10.00
2017-12-23T11:59:51.207Z,10.93
2017-12-23T12:02:18.764Z,11.33
2017-12-23T12:04:46.233Z,11.10
2017-12-23T12:07:13.924Z,12.20
2017-12-23T12:09:41.421Z,11.50
2017-12-23T12:12:08.916Z,11.83
2017-12-23T12:14:36.384Z,11.80
2017-12-23T12:17:03.869Z,12.23
2017-12-23T12:19:31.320Z,11.50
2017-12-23T12:21:59.892Z,11.77
2017-12-23T12:24:27.438Z,13.60
2017-12-23T12:26:54.919Z,13.60
2017-12-23T12:29:23.013Z,13.60
2017-12-23T12:31:50.484Z,11.20
2017-12-23T12:34:18.000Z,11.93
2017-12-23T12:36:48.439Z,11.77
2017-12-23T12:39:16.294Z,12.20
2017-12-23T12:41:44.039Z,10.90
2017-12-23T12:44:11.617Z,11.43
2017-12-23T12:46:39.432Z,12.23
2017-12-23T12:49:07.004Z,11.77
2017-12-23T12:51:34.597Z,11.90
2017-12-23T12:54:03.075Z,11.33
2017-12-23T12:56:30.671Z,11.43
2017-12-23T12:58:58.405Z,10.20
2017-12-23T13:01:25.945Z,11.77
2017-12-23T13:03:53.445Z,10.67
2017-12-23T13:06:21.029Z,9.90
2017-12-23T13:08:48.540Z,10.20
2017-12-23T13:11:16.108Z,10.50
2017-12-23T13:13:43.899Z,10.13
2017-12-23T13:16:11.505Z,11.33
2017-12-23T13:18:43.755Z,10.17
2017-12-23T13:21:11.791Z,11.00
2017-12-23T13:23:39.318Z,10.77
2017-12-23T13:26:07.052Z,9.73
2017-12-23T13:28:41.292Z,9.77
2017-12-23T13:31:08.830Z,8.93
2017-12-23T13:33:36.343Z,9.60
2017-12-23T13:36:04.006Z,10.13
2017-12-23T13:38:32.837Z,10.83
2017-12-23T13:41:00.333Z,10.60
2017-12-23T13:43:27.834Z,10.67
2017-12-23T13:45:55.398Z,10.90
2017-12-23T13:48:29.934Z,10.97
2017-12-23T13:50:57.619Z,10.50
2017-12-23T13:53:25.196Z,9.80
2017-12-23T13:55:52.681Z,10.97
2017-12-23T13:58:20.218Z,10.70
2017-12-23T14:00:47.693Z,11.00
2017-12-23T14:03:17.632Z,10.13
2017-12-23T14:05:45.104Z,10.53
2017-12-23T14:08:12.601Z,10.80
2017-12-23T14:10:40.116Z,9.97
2017-12-23T14:13:07.579Z,10.93
2017-12-23T14:15:35.215Z,10.60
2017-12-23T14:18:03.424Z,11.63
2017-12-23T14:20:41.445Z,10.23
2017-12-23T14:23:12.882Z,11.00
2017-12-23T14:25:59.538Z,11.90
2017-12-23T14:28:31.353Z,10.23
2017-12-23T14:31:19.918Z,12.33
2017-12-23T14:33:50.630Z,12.40
2017-12-23T14:36:18.158Z,11.40
2017-12-23T14:38:45.647Z,11.70
2017-12-23T14:41:13.146Z,13.67
2017-12-23T14:43:46.591Z,12.13
2017-12-23T14:52:20.687Z,12.13
2017-12-23T14:54:48.694Z,12.83
2017-12-23T14:57:21.145Z,13.10
2017-12-23T14:59:49.504Z,13.13
2017-12-23T15:02:19.571Z,12.00
2017-12-23T15:04:47.387Z,13.00
2017-12-23T15:16:10.260Z,13.50
2017-12-23T15:18:37.724Z,13.40
2017-12-23T15:24:29.107Z,14.30
2017-12-23T15:26:56.666Z,14.00
2017-12-23T15:29:24.152Z,14.60
2017-12-23T15:31:51.707Z,14.10
2017-12-23T15:34:19.231Z,12.80
2017-12-23T15:40:00.180Z,13.43
2017-12-23T15:42:29.485Z,13.57
2017-12-23T15:47:50.812Z,15.00
2017-12-23T15:50:30.450Z,12.70
2017-12-23T15:52:58.080Z,12.80
2017-12-23T15:55:25.775Z,12.57
2017-12-23T15:57:53.333Z,13.00
2017-12-23T16:00:24.321Z,14.10
2017-12-23T16:02:53.853Z,13.53
2017-12-23T16:05:21.333Z,12.80
2017-12-23T16:07:48.850Z,13.23
2017-12-23T16:10:16.325Z,14.50
2017-12-23T16:12:43.887Z,14.10
2017-12-23T16:15:11.620Z,13.80
2017-12-23T16:17:39.116Z,12.90
2017-12-23T16:20:07.892Z,14.20
2017-12-23T16:22:35.571Z,13.17
2017-12-23T16:25:03.074Z,12.50
2017-12-23T16:27:30.554Z,12.13
2017-12-23T16:29:58.295Z,12.20
2017-12-23T16:32:25.960Z,12.13
2017-12-23T16:34:53.851Z,11.50
2017-12-23T16:37:21.922Z,12.13
2017-12-23T16:39:49.590Z,12.00
2017-12-23T16:42:17.554Z,11.83
2017-12-23T16:44:45.073Z,10.10
2017-12-23T16:47:12.542Z,10.50
2017-12-23T16:49:40.024Z,11.30
2017-12-23T16:52:09.280Z,10.40
2017-12-23T16:54:36.747Z,9.80
2017-12-23T16:57:04.310Z,11.37
2017-12-23T16:59:31.874Z,10.17
2017-12-23T17:01:59.590Z,10.10
2017-12-23T17:04:27.165Z,9.90
2017-12-23T17:06:55.434Z,9.77
2017-12-23T17:09:23.350Z,10.30
2017-12-23T17:11:50.924Z,9.73
2017-12-23T17:14:18.428Z,9.47
2017-12-23T17:16:45.981Z,9.40
2017-12-23T17:19:14.284Z,9.10
2017-12-23T17:21:41.900Z,9.17
2017-12-23T17:24:09.504Z,9.97
2017-12-23T17:26:37.986Z,9.83
2017-12-23T17:29:17.402Z,9.17
2017-12-23T17:31:44.865Z,9.60
2017-12-23T17:34:12.572Z,8.87
2017-12-23T17:36:40.253Z,9.77
2017-12-23T17:39:08.258Z,8.70
2017-12-23T17:41:35.831Z,9.40
2017-12-23T17:44:03.309Z,9.90
2017-12-23T17:46:32.239Z,9.40
2017-12-23T17:48:59.717Z,9.13
2017-12-23T17:51:27.192Z,10.13
2017-12-23T17:53:55.212Z,8.60
2017-12-23T17:59:19.822Z,8.90
2017-12-23T18:08:49.671Z,8.60
2017-12-23T18:11:17.220Z,8.87
2017-12-23T18:13:44.967Z,8.47
2017-12-23T18:16:12.586Z,9.17
2017-12-23T18:18:40.532Z,7.60
2017-12-23T18:21:29.256Z,9.83
2017-12-23T18:26:59.110Z,8.10
2017-12-23T18:29:26.608Z,8.27
2017-12-23T18:31:54.109Z,8.40
2017-12-23T18:34:21.651Z,8.70
2017-12-23T18:36:49.112Z,9.23
2017-12-23T18:39:17.454Z,8.20
2017-12-23T18:41:44.966Z,9.50
2017-12-23T18:44:12.608Z,10.93
2017-12-23T18:46:40.981Z,8.23
2017-12-23T18:49:08.485Z,8.37
2017-12-23T18:51:36.016Z,8.37
2017-12-23T18:54:03.595Z,8.47
2017-12-23T18:56:31.668Z,8.20
2017-12-23T18:58:59.478Z,7.97
2017-12-23T19:01:27.599Z,7.80
2017-12-23T19:03:55.100Z,8.30
2017-12-23T19:06:23.919Z,7.40
2017-12-23T19:08:51.808Z,8.83
2017-12-23T19:11:19.470Z,7.53
2017-12-23T19:13:47.699Z,8.40
2017-12-23T19:16:29.493Z,7.13
2017-12-23T19:19:03.227Z,8.00
2017-12-23T19:21:31.097Z,7.80
2017-12-23T19:23:59.155Z,7.67
2017-12-23T19:26:26.766Z,7.67
2017-12-23T19:28:54.557Z,7.63
2017-12-23T19:31:22.249Z,8.00
2017-12-23T19:33:49.748Z,8.40
2017-12-23T19:36:17.333Z,7.33
2017-12-23T19:38:47.856Z,7.83
2017-12-23T19:41:16.843Z,7.97
2017-12-23T19:43:46.745Z,7.63
2017-12-23T19:46:15.868Z,7.60
2017-12-23T19:48:44.636Z,7.50
2017-12-23T19:51:12.366Z,7.47
2017-12-23T19:53:39.963Z,7.63
2017-12-23T19:56:07.773Z,7.73
2017-12-23T19:58:38.475Z,7.20
2017-12-23T20:01:26.200Z,6.53
2017-12-23T20:03:54.036Z,6.40
2017-12-23T20:06:23.895Z,7.43
2017-12-23T20:08:53.529Z,6.40
2017-12-23T20:11:21.695Z,6.63
2017-12-23T20:13:49.442Z,6.60
2017-12-23T20:16:21.850Z,6.13
2017-12-23T20:18:51.393Z,6.87
2017-12-23T20:21:19.417Z,6.77
2017-12-23T20:23:47.044Z,7.07
2017-12-23T20:26:15.311Z,6.37
2017-12-23T20:28:43.024Z,5.70
2017-12-23T20:31:11.014Z,6.33
2017-12-23T20:33:39.914Z,6.50
2017-12-23T20:36:07.760Z,6.10
2017-12-23T20:38:36.724Z,6.13
2017-12-23T20:41:04.363Z,6.03
2017-12-23T20:43:31.954Z,5.37
2017-12-23T20:46:00.423Z,5.97
2017-12-23T20:48:30.403Z,5.47
2017-12-23T20:50:58.149Z,5.70
2017-12-23T20:53:27.650Z,5.30
2017-12-23T20:55:55.312Z,6.07
2017-12-23T20:58:23.030Z,6.93
2017-12-23T21:00:51.104Z,6.60
2017-12-23T21:03:19.632Z,7.20
2017-12-23T21:05:47.441Z,6.07
2017-12-23T21:08:15.761Z,5.77
2017-12-23T21:10:43.508Z,6.50
2017-12-23T21:13:11.414Z,5.80
2017-12-23T21:15:39.078Z,6.10
2017-12-23T21:18:07.043Z,5.63
2017-12-23T21:20:35.764Z,6.20
2017-12-23T21:23:03.520Z,5.77
2017-12-23T21:25:44.430Z,6.20
2017-12-23T21:28:17.589Z,5.50
2017-12-23T21:30:45.871Z,6.50
2017-12-23T21:33:13.695Z,6.40
2017-12-23T21:35:41.756Z,5.70
2017-12-23T21:38:09.662Z,6.13
2017-12-23T21:40:38.601Z,6.13
2017-12-23T21:43:06.576Z,5.63
2017-12-23T21:45:36.263Z,5.60
2017-12-23T21:48:08.157Z,5.97
2017-12-23T21:50:36.329Z,5.30
2017-12-23T21:53:05.103Z,5.63
2017-12-23T21:55:33.500Z,4.50
2017-12-23T21:58:02.807Z,5.20
2017-12-23T22:00:30.349Z,4.87
2017-12-23T22:02:57.860Z,5.73
2017-12-23T22:05:25.301Z,4.60
2017-12-23T22:07:52.763Z,4.67
2017-12-23T22:10:20.231Z,4.50
2017-12-23T22:12:48.229Z,4.63
2017-12-23T22:15:15.957Z,4.40
2017-12-23T22:17:43.466Z,4.40
2017-12-23T22:20:10.933Z,4.67
2017-12-23T22:22:38.455Z,4.90
2017-12-23T22:25:05.962Z,4.40
2017-12-23T22:27:33.493Z,4.27
2017-12-23T22:30:00.983Z,3.53
2017-12-23T22:32:28.440Z,3.90
2017-12-23T22:34:55.912Z,4.40
2017-12-23T22:37:23.405Z,4.13
2017-12-23T22:39:51.036Z,4.13
2017-12-23T22:42:30.247Z,4.40
2017-12-23T22:44:57.719Z,4.17
2017-12-23T22:47:25.183Z,4.13
2017-12-23T22:49:52.655Z,3.90
2017-12-23T22:52:21.818Z,3.90
2017-12-23T22:54:49.258Z,3.60
2017-12-23T22:57:16.783Z,3.47
2017-12-23T22:59:44.324Z,3.67
2017-12-23T23:02:11.807Z,3.77
2017-12-23T23:04:39.254Z,3.70
2017-12-23T23:07:06.795Z,3.73
2017-12-23T23:09:34.271Z,4.00
2017-12-23T23:12:01.796Z,4.40
2017-12-23T23:14:29.261Z,4.47
2017-12-23T23:16:56.765Z,4.10
2017-12-23T23:19:24.280Z,4.37
2017-12-23T23:21:51.808Z,4.00
2017-12-23T23:24:20.215Z,4.80
2017-12-23T23:26:48.384Z,4.67
2017-12-23T23:29:15.847Z,4.73
2017-12-23T23:31:43.324Z,4.77
2017-12-23T23:34:10.791Z,4.30
2017-12-23T23:36:38.345Z,4.10
2017-12-23T23:39:05.890Z,4.20
2017-12-23T23:41:38.415Z,4.80
2017-12-23T23:44:06.114Z,4.37
2017-12-23T23:46:34.051Z,4.67
2017-12-23T23:49:01.729Z,4.47
2017-12-23T23:51:29.391Z,4.80
2017-12-23T23:53:56.896Z,5.03
2017-12-23T23:56:25.068Z,5.20
2017-12-23T23:58:52.638Z,4.90
